sensor_id;sensor_type;location;lat;lon;timestamp;P1;durP1;ratioP1;P2;durP2;ratioP2
51686;SDS011;37774;52.192;4.584;2023-02-11T00:00:26;13.82;;;3.75;;
51686;SDS011;37774;52.192;4.584;2023-02-11T00:02:53;26.73;;;3.90;;
51686;SDS011;37774;52.192;4.584;2023-02-11T00:05:19;12.68;;;2.92;;
51686;SDS011;37774;52.192;4.584;2023-02-11T00:07:46;22.13;;;2.92;;
51686;SDS011;37774;52.192;4.584;2023-02-11T00:10:13;15.82;;;3.00;;
51686;SDS011;37774;52.192;4.584;2023-02-11T00:12:39;16.05;;;2.47;;
51686;SDS011;37774;52.192;4.584;2023-02-11T00:15:09;6.95;;;2.55;;
51686;SDS011;37774;52.192;4.584;2023-02-11T00:17:36;10.65;;;2.60;;
51686;SDS011;37774;52.192;4.584;2023-02-11T00:20:03;19.20;;;3.78;;
51686;SDS011;37774;52.192;4.584;2023-02-11T00:22:30;19.33;;;4.38;;
51686;SDS011;37774;52.192;4.584;2023-02-11T00:24:57;25.23;;;4.68;;
51686;SDS011;37774;52.192;4.584;2023-02-11T00:27:23;17.63;;;3.88;;
51686;SDS011;37774;52.192;4.584;2023-02-11T00:29:50;17.70;;;5.10;;
51686;SDS011;37774;52.192;4.584;2023-02-11T00:32:19;15.07;;;3.63;;
51686;SDS011;37774;52.192;4.584;2023-02-11T00:34:45;18.70;;;4.38;;
51686;SDS011;37774;52.192;4.584;2023-02-11T00:37:12;31.13;;;4.03;;
51686;SDS011;37774;52.192;4.584;2023-02-11T00:39:39;9.68;;;2.85;;
51686;SDS011;37774;52.192;4.584;2023-02-11T00:42:06;13.05;;;3.58;;
51686;SDS011;37774;52.192;4.584;2023-02-11T00:44:32;15.90;;;2.88;;
51686;SDS011;37774;52.192;4.584;2023-02-11T00:46:59;14.23;;;3.40;;
51686;SDS011;37774;52.192;4.584;2023-02-11T00:49:27;15.07;;;3.45;;
51686;SDS011;37774;52.192;4.584;2023-02-11T00:51:54;17.13;;;4.25;;
51686;SDS011;37774;52.192;4.584;2023-02-11T00:54:20;17.15;;;3.20;;
51686;SDS011;37774;52.192;4.584;2023-02-11T00:56:47;22.00;;;3.33;;
51686;SDS011;37774;52.192;4.584;2023-02-11T00:59:14;11.32;;;4.03;;
51686;SDS011;37774;52.192;4.584;2023-02-11T01:01:41;13.07;;;3.10;;
51686;SDS011;37774;52.192;4.584;2023-02-11T01:04:08;30.85;;;4.85;;
51686;SDS011;37774;52.192;4.584;2023-02-11T01:06:36;31.45;;;5.32;;
51686;SDS011;37774;52.192;4.584;2023-02-11T01:09:03;13.60;;;3.45;;
51686;SDS011;37774;52.192;4.584;2023-02-11T01:11:29;18.95;;;3.60;;
51686;SDS011;37774;52.192;4.584;2023-02-11T01:13:56;21.33;;;3.80;;
51686;SDS011;37774;52.192;4.584;2023-02-11T01:16:23;13.63;;;4.13;;
51686;SDS011;37774;52.192;4.584;2023-02-11T01:18:50;20.33;;;4.55;;
51686;SDS011;37774;52.192;4.584;2023-02-11T01:21:16;22.10;;;4.75;;
51686;SDS011;37774;52.192;4.584;2023-02-11T01:23:45;14.88;;;3.88;;
51686;SDS011;37774;52.192;4.584;2023-02-11T01:26:11;32.15;;;4.50;;
51686;SDS011;37774;52.192;4.584;2023-02-11T01:28:38;26.30;;;4.63;;
51686;SDS011;37774;52.192;4.584;2023-02-11T01:31:05;17.00;;;3.78;;
51686;SDS011;37774;52.192;4.584;2023-02-11T01:33:32;24.10;;;4.30;;
51686;SDS011;37774;52.192;4.584;2023-02-11T01:35:59;24.10;;;4.15;;
51686;SDS011;37774;52.192;4.584;2023-02-11T01:38:27;23.13;;;5.57;;
51686;SDS011;37774;52.192;4.584;2023-02-11T01:40:56;14.77;;;4.22;;
51686;SDS011;37774;52.192;4.584;2023-02-11T01:43:25;26.98;;;5.20;;
51686;SDS011;37774;52.192;4.584;2023-02-11T01:45:58;17.83;;;4.00;;
51686;SDS011;37774;52.192;4.584;2023-02-11T01:48:30;25.27;;;4.33;;
51686;SDS011;37774;52.192;4.584;2023-02-11T01:51:01;26.70;;;4.28;;
51686;SDS011;37774;52.192;4.584;2023-02-11T01:53:32;21.02;;;5.22;;
51686;SDS011;37774;52.192;4.584;2023-02-11T01:56:19;18.20;;;4.97;;
51686;SDS011;37774;52.192;4.584;2023-02-11T01:59:06;28.02;;;6.22;;
51686;SDS011;37774;52.192;4.584;2023-02-11T02:01:36;12.57;;;4.20;;
51686;SDS011;37774;52.192;4.584;2023-02-11T02:04:05;21.27;;;4.32;;
51686;SDS011;37774;52.192;4.584;2023-02-11T02:06:36;20.00;;;3.95;;
51686;SDS011;37774;52.192;4.584;2023-02-11T02:09:10;13.73;;;4.57;;
51686;SDS011;37774;52.192;4.584;2023-02-11T02:11:46;34.08;;;5.00;;
51686;SDS011;37774;52.192;4.584;2023-02-11T02:14:13;18.73;;;4.70;;
51686;SDS011;37774;52.192;4.584;2023-02-11T02:16:40;21.98;;;6.50;;
51686;SDS011;37774;52.192;4.584;2023-02-11T02:19:13;19.10;;;5.07;;
51686;SDS011;37774;52.192;4.584;2023-02-11T02:22:07;33.25;;;5.55;;
51686;SDS011;37774;52.192;4.584;2023-02-11T02:25:04;23.45;;;5.20;;
51686;SDS011;37774;52.192;4.584;2023-02-11T02:27:43;38.03;;;5.90;;
51686;SDS011;37774;52.192;4.584;2023-02-11T02:36:08;31.15;;;6.15;;
51686;SDS011;37774;52.192;4.584;2023-02-11T02:38:43;15.50;;;5.05;;
51686;SDS011;37774;52.192;4.584;2023-02-11T02:41:18;21.45;;;6.20;;
51686;SDS011;37774;52.192;4.584;2023-02-11T02:43:47;41.20;;;7.65;;
51686;SDS011;37774;52.192;4.584;2023-02-11T02:46:16;29.75;;;6.35;;
51686;SDS011;37774;52.192;4.584;2023-02-11T02:48:46;30.67;;;7.43;;
51686;SDS011;37774;52.192;4.584;2023-02-11T02:51:20;24.63;;;6.35;;
51686;SDS011;37774;52.192;4.584;2023-02-11T02:53:57;32.75;;;6.35;;
51686;SDS011;37774;52.192;4.584;2023-02-11T02:56:43;23.77;;;6.63;;
51686;SDS011;37774;52.192;4.584;2023-02-11T02:59:20;34.28;;;6.55;;
51686;SDS011;37774;52.192;4.584;2023-02-11T03:01:56;23.60;;;6.72;;
51686;SDS011;37774;52.192;4.584;2023-02-11T03:04:35;40.35;;;7.90;;
51686;SDS011;37774;52.192;4.584;2023-02-11T03:07:10;33.42;;;8.00;;
51686;SDS011;37774;52.192;4.584;2023-02-11T03:09:45;45.42;;;7.63;;
51686;SDS011;37774;52.192;4.584;2023-02-11T03:12:16;22.95;;;7.60;;
51686;SDS011;37774;52.192;4.584;2023-02-11T03:14:45;41.33;;;9.07;;
51686;SDS011;37774;52.192;4.584;2023-02-11T03:17:14;24.17;;;8.13;;
51686;SDS011;37774;52.192;4.584;2023-02-11T03:19:44;27.20;;;7.18;;
51686;SDS011;37774;52.192;4.584;2023-02-11T03:22:15;32.22;;;8.25;;
51686;SDS011;37774;52.192;4.584;2023-02-11T03:24:45;38.20;;;8.48;;
51686;SDS011;37774;52.192;4.584;2023-02-11T03:27:14;26.38;;;8.65;;
51686;SDS011;37774;52.192;4.584;2023-02-11T03:29:48;30.63;;;8.15;;
51686;SDS011;37774;52.192;4.584;2023-02-11T03:32:22;42.10;;;8.68;;
51686;SDS011;37774;52.192;4.584;2023-02-11T03:34:54;39.15;;;10.48;;
51686;SDS011;37774;52.192;4.584;2023-02-11T03:37:25;41.08;;;8.75;;
51686;SDS011;37774;52.192;4.584;2023-02-11T03:39:58;30.77;;;9.43;;
51686;SDS011;37774;52.192;4.584;2023-02-11T03:42:29;39.88;;;9.90;;
51686;SDS011;37774;52.192;4.584;2023-02-11T03:45:02;25.77;;;8.48;;
51686;SDS011;37774;52.192;4.584;2023-02-11T03:47:34;33.95;;;9.10;;
51686;SDS011;37774;52.192;4.584;2023-02-11T03:50:05;38.17;;;8.63;;
51686;SDS011;37774;52.192;4.584;2023-02-11T03:52:35;36.65;;;10.93;;
51686;SDS011;37774;52.192;4.584;2023-02-11T03:55:04;40.83;;;10.48;;
51686;SDS011;37774;52.192;4.584;2023-02-11T03:57:35;35.17;;;9.30;;
51686;SDS011;37774;52.192;4.584;2023-02-11T04:00:02;41.40;;;10.45;;
51686;SDS011;37774;52.192;4.584;2023-02-11T04:02:32;33.92;;;10.35;;
51686;SDS011;37774;52.192;4.584;2023-02-11T04:05:00;39.42;;;9.93;;
51686;SDS011;37774;52.192;4.584;2023-02-11T04:07:29;42.40;;;9.30;;
51686;SDS011;37774;52.192;4.584;2023-02-11T04:09:56;31.05;;;8.85;;
51686;SDS011;37774;52.192;4.584;2023-02-11T04:12:22;45.83;;;10.68;;
51686;SDS011;37774;52.192;4.584;2023-02-11T04:14:49;23.42;;;8.65;;
51686;SDS011;37774;52.192;4.584;2023-02-11T04:17:16;36.75;;;10.98;;
51686;SDS011;37774;52.192;4.584;2023-02-11T04:19:43;39.85;;;9.60;;
51686;SDS011;37774;52.192;4.584;2023-02-11T04:22:14;35.00;;;9.30;;
51686;SDS011;37774;52.192;4.584;2023-02-11T04:24:42;36.63;;;9.80;;
51686;SDS011;37774;52.192;4.584;2023-02-11T04:27:09;28.13;;;8.95;;
51686;SDS011;37774;52.192;4.584;2023-02-11T04:29:36;41.00;;;10.80;;
51686;SDS011;37774;52.192;4.584;2023-02-11T04:32:03;31.30;;;12.02;;
51686;SDS011;37774;52.192;4.584;2023-02-11T04:34:30;38.17;;;9.25;;
51686;SDS011;37774;52.192;4.584;2023-02-11T04:36:57;40.10;;;11.00;;
51686;SDS011;37774;52.192;4.584;2023-02-11T04:39:23;35.22;;;11.50;;
51686;SDS011;37774;52.192;4.584;2023-02-11T04:41:51;52.28;;;11.88;;
51686;SDS011;37774;52.192;4.584;2023-02-11T04:44:18;56.13;;;12.73;;
51686;SDS011;37774;52.192;4.584;2023-02-11T04:46:45;37.13;;;11.68;;
51686;SDS011;37774;52.192;4.584;2023-02-11T04:49:12;40.38;;;9.70;;
51686;SDS011;37774;52.192;4.584;2023-02-11T04:51:39;46.42;;;10.80;;
51686;SDS011;37774;52.192;4.584;2023-02-11T04:54:07;37.20;;;11.13;;
51686;SDS011;37774;52.192;4.584;2023-02-11T04:56:34;42.42;;;11.23;;
51686;SDS011;37774;52.192;4.584;2023-02-11T04:59:02;32.95;;;10.80;;
51686;SDS011;37774;52.192;4.584;2023-02-11T05:01:29;37.83;;;11.75;;
51686;SDS011;37774;52.192;4.584;2023-02-11T05:03:56;36.83;;;12.20;;
51686;SDS011;37774;52.192;4.584;2023-02-11T05:06:24;43.58;;;10.82;;
51686;SDS011;37774;52.192;4.584;2023-02-11T05:08:51;38.80;;;12.95;;
51686;SDS011;37774;52.192;4.584;2023-02-11T05:11:18;44.35;;;12.48;;
51686;SDS011;37774;52.192;4.584;2023-02-11T05:13:46;39.80;;;13.55;;
51686;SDS011;37774;52.192;4.584;2023-02-11T05:16:15;52.13;;;14.15;;
51686;SDS011;37774;52.192;4.584;2023-02-11T05:18:42;49.65;;;14.57;;
51686;SDS011;37774;52.192;4.584;2023-02-11T05:21:10;53.97;;;14.27;;
51686;SDS011;37774;52.192;4.584;2023-02-11T05:23:39;42.30;;;14.02;;
51686;SDS011;37774;52.192;4.584;2023-02-11T05:26:06;41.75;;;14.52;;
51686;SDS011;37774;52.192;4.584;2023-02-11T05:28:33;54.83;;;13.65;;
51686;SDS011;37774;52.192;4.584;2023-02-11T05:31:00;55.83;;;12.85;;
51686;SDS011;37774;52.192;4.584;2023-02-11T05:33:28;34.75;;;12.55;;
51686;SDS011;37774;52.192;4.584;2023-02-11T05:35:57;46.83;;;13.55;;
51686;SDS011;37774;52.192;4.584;2023-02-11T05:38:24;44.70;;;14.13;;
51686;SDS011;37774;52.192;4.584;2023-02-11T05:40:50;59.63;;;14.43;;
51686;SDS011;37774;52.192;4.584;2023-02-11T05:43:17;31.95;;;11.95;;
51686;SDS011;37774;52.192;4.584;2023-02-11T05:45:44;51.30;;;14.80;;
51686;SDS011;37774;52.192;4.584;2023-02-11T05:48:11;52.15;;;14.52;;
51686;SDS011;37774;52.192;4.584;2023-02-11T05:50:39;41.55;;;12.82;;
51686;SDS011;37774;52.192;4.584;2023-02-11T05:53:06;50.92;;;13.57;;
51686;SDS011;37774;52.192;4.584;2023-02-11T05:55:33;48.20;;;14.07;;
51686;SDS011;37774;52.192;4.584;2023-02-11T05:57:59;48.28;;;13.50;;
51686;SDS011;37774;52.192;4.584;2023-02-11T06:00:26;50.70;;;13.38;;
51686;SDS011;37774;52.192;4.584;2023-02-11T06:02:53;56.08;;;16.20;;
51686;SDS011;37774;52.192;4.584;2023-02-11T06:05:20;45.78;;;15.43;;
51686;SDS011;37774;52.192;4.584;2023-02-11T06:07:48;53.03;;;14.00;;
51686;SDS011;37774;52.192;4.584;2023-02-11T06:10:15;40.65;;;14.07;;
51686;SDS011;37774;52.192;4.584;2023-02-11T06:12:42;65.15;;;15.50;;
51686;SDS011;37774;52.192;4.584;2023-02-11T06:15:10;49.97;;;16.02;;
51686;SDS011;37774;52.192;4.584;2023-02-11T06:17:45;52.97;;;15.30;;
51686;SDS011;37774;52.192;4.584;2023-02-11T06:20:11;54.72;;;14.73;;
51686;SDS011;37774;52.192;4.584;2023-02-11T06:22:38;64.15;;;16.80;;
51686;SDS011;37774;52.192;4.584;2023-02-11T06:25:05;54.38;;;16.52;;
51686;SDS011;37774;52.192;4.584;2023-02-11T06:27:38;60.25;;;17.38;;
51686;SDS011;37774;52.192;4.584;2023-02-11T06:30:05;58.35;;;15.95;;
51686;SDS011;37774;52.192;4.584;2023-02-11T06:32:33;48.38;;;15.13;;
51686;SDS011;37774;52.192;4.584;2023-02-11T06:35:01;43.25;;;15.00;;
51686;SDS011;37774;52.192;4.584;2023-02-11T06:37:28;56.22;;;14.43;;
51686;SDS011;37774;52.192;4.584;2023-02-11T06:39:55;42.50;;;14.43;;
51686;SDS011;37774;52.192;4.584;2023-02-11T06:42:22;50.33;;;15.13;;
51686;SDS011;37774;52.192;4.584;2023-02-11T06:44:49;44.65;;;15.38;;
51686;SDS011;37774;52.192;4.584;2023-02-11T06:47:15;60.88;;;16.67;;
51686;SDS011;37774;52.192;4.584;2023-02-11T06:49:42;56.92;;;15.63;;
51686;SDS011;37774;52.192;4.584;2023-02-11T06:52:11;46.50;;;13.60;;
51686;SDS011;37774;52.192;4.584;2023-02-11T06:54:38;52.63;;;16.83;;
51686;SDS011;37774;52.192;4.584;2023-02-11T06:57:05;48.78;;;16.17;;
51686;SDS011;37774;52.192;4.584;2023-02-11T06:59:31;39.15;;;12.60;;
51686;SDS011;37774;52.192;4.584;2023-02-11T07:01:58;46.30;;;16.00;;
51686;SDS011;37774;52.192;4.584;2023-02-11T07:04:25;41.33;;;14.80;;
51686;SDS011;37774;52.192;4.584;2023-02-11T07:06:52;42.72;;;14.13;;
51686;SDS011;37774;52.192;4.584;2023-02-11T07:09:20;37.58;;;13.85;;
51686;SDS011;37774;52.192;4.584;2023-02-11T07:11:47;42.22;;;13.70;;
51686;SDS011;37774;52.192;4.584;2023-02-11T07:14:14;37.63;;;14.18;;
51686;SDS011;37774;52.192;4.584;2023-02-11T07:16:41;48.78;;;14.13;;
51686;SDS011;37774;52.192;4.584;2023-02-11T07:19:08;40.50;;;14.27;;
51686;SDS011;37774;52.192;4.584;2023-02-11T07:21:34;40.80;;;14.77;;
51686;SDS011;37774;52.192;4.584;2023-02-11T07:24:01;39.47;;;13.65;;
51686;SDS011;37774;52.192;4.584;2023-02-11T07:26:33;54.35;;;14.77;;
51686;SDS011;37774;52.192;4.584;2023-02-11T07:29:01;42.90;;;14.07;;
51686;SDS011;37774;52.192;4.584;2023-02-11T07:31:28;34.67;;;12.48;;
51686;SDS011;37774;52.192;4.584;2023-02-11T07:33:57;41.10;;;12.52;;
51686;SDS011;37774;52.192;4.584;2023-02-11T07:36:25;42.00;;;14.18;;
51686;SDS011;37774;52.192;4.584;2023-02-11T07:38:53;49.85;;;13.88;;
51686;SDS011;37774;52.192;4.584;2023-02-11T07:41:21;32.53;;;13.23;;
51686;SDS011;37774;52.192;4.584;2023-02-11T07:43:50;33.60;;;14.15;;
51686;SDS011;37774;52.192;4.584;2023-02-11T07:46:18;45.00;;;13.82;;
51686;SDS011;37774;52.192;4.584;2023-02-11T07:48:46;47.42;;;12.90;;
51686;SDS011;37774;52.192;4.584;2023-02-11T07:51:14;43.22;;;13.73;;
51686;SDS011;37774;52.192;4.584;2023-02-11T07:53:42;46.65;;;14.15;;
51686;SDS011;37774;52.192;4.584;2023-02-11T07:56:09;41.53;;;13.50;;
51686;SDS011;37774;52.192;4.584;2023-02-11T07:58:38;47.20;;;14.10;;
51686;SDS011;37774;52.192;4.584;2023-02-11T08:01:08;38.15;;;14.23;;
51686;SDS011;37774;52.192;4.584;2023-02-11T08:03:37;40.20;;;12.55;;
51686;SDS011;37774;52.192;4.584;2023-02-11T08:06:06;35.42;;;13.35;;
51686;SDS011;37774;52.192;4.584;2023-02-11T08:08:35;52.35;;;14.68;;
51686;SDS011;37774;52.192;4.584;2023-02-11T08:11:04;34.97;;;14.25;;
51686;SDS011;37774;52.192;4.584;2023-02-11T08:13:32;47.38;;;14.20;;
51686;SDS011;37774;52.192;4.584;2023-02-11T08:15:59;32.42;;;12.77;;
51686;SDS011;37774;52.192;4.584;2023-02-11T08:18:27;37.67;;;13.00;;
51686;SDS011;37774;52.192;4.584;2023-02-11T08:20:54;49.40;;;13.90;;
51686;SDS011;37774;52.192;4.584;2023-02-11T08:23:20;46.45;;;13.85;;
51686;SDS011;37774;52.192;4.584;2023-02-11T08:25:48;42.22;;;12.70;;
51686;SDS011;37774;52.192;4.584;2023-02-11T08:28:15;33.42;;;13.48;;
51686;SDS011;37774;52.192;4.584;2023-02-11T08:30:42;38.40;;;13.02;;
51686;SDS011;37774;52.192;4.584;2023-02-11T08:33:08;42.97;;;14.00;;
51686;SDS011;37774;52.192;4.584;2023-02-11T08:35:37;40.05;;;14.07;;
51686;SDS011;37774;52.192;4.584;2023-02-11T08:38:04;30.45;;;13.43;;
51686;SDS011;37774;52.192;4.584;2023-02-11T08:40:31;39.63;;;15.30;;
51686;SDS011;37774;52.192;4.584;2023-02-11T08:42:58;35.83;;;12.95;;
51686;SDS011;37774;52.192;4.584;2023-02-11T08:45:25;35.20;;;13.13;;
51686;SDS011;37774;52.192;4.584;2023-02-11T08:47:51;43.42;;;12.20;;
51686;SDS011;37774;52.192;4.584;2023-02-11T08:50:18;41.05;;;13.77;;
51686;SDS011;37774;52.192;4.584;2023-02-11T08:52:46;30.40;;;11.90;;
51686;SDS011;37774;52.192;4.584;2023-02-11T08:55:13;37.72;;;12.85;;
51686;SDS011;37774;52.192;4.584;2023-02-11T08:57:40;36.30;;;13.00;;
51686;SDS011;37774;52.192;4.584;2023-02-11T09:00:07;34.50;;;10.88;;
51686;SDS011;37774;52.192;4.584;2023-02-11T09:02:35;33.83;;;12.40;;
51686;SDS011;37774;52.192;4.584;2023-02-11T09:05:02;31.40;;;10.43;;
51686;SDS011;37774;52.192;4.584;2023-02-11T09:07:29;31.83;;;10.68;;
51686;SDS011;37774;52.192;4.584;2023-02-11T09:09:57;30.42;;;10.73;;
51686;SDS011;37774;52.192;4.584;2023-02-11T09:12:24;38.17;;;10.25;;
51686;SDS011;37774;52.192;4.584;2023-02-11T09:14:51;29.95;;;11.30;;
51686;SDS011;37774;52.192;4.584;2023-02-11T09:17:17;24.48;;;10.20;;
51686;SDS011;37774;52.192;4.584;2023-02-11T09:19:45;24.77;;;10.10;;
51686;SDS011;37774;52.192;4.584;2023-02-11T09:22:11;27.13;;;10.50;;
51686;SDS011;37774;52.192;4.584;2023-02-11T09:24:38;28.83;;;9.65;;
51686;SDS011;37774;52.192;4.584;2023-02-11T09:27:06;27.38;;;10.10;;
51686;SDS011;37774;52.192;4.584;2023-02-11T09:29:33;33.10;;;9.82;;
51686;SDS011;37774;52.192;4.584;2023-02-11T09:32:00;28.63;;;11.38;;
51686;SDS011;37774;52.192;4.584;2023-02-11T09:34:27;24.25;;;9.52;;
51686;SDS011;37774;52.192;4.584;2023-02-11T09:36:54;34.15;;;11.85;;
51686;SDS011;37774;52.192;4.584;2023-02-11T09:39:22;31.50;;;11.45;;
51686;SDS011;37774;52.192;4.584;2023-02-11T09:41:58;35.50;;;10.70;;
51686;SDS011;37774;52.192;4.584;2023-02-11T09:44:43;26.20;;;9.90;;
51686;SDS011;37774;52.192;4.584;2023-02-11T09:47:15;30.63;;;10.07;;
51686;SDS011;37774;52.192;4.584;2023-02-11T09:49:50;27.10;;;9.90;;
51686;SDS011;37774;52.192;4.584;2023-02-11T09:52:23;38.22;;;11.32;;
51686;SDS011;37774;52.192;4.584;2023-02-11T09:57:27;30.30;;;8.75;;
51686;SDS011;37774;52.192;4.584;2023-02-11T09:59:58;24.65;;;10.40;;
51686;SDS011;37774;52.192;4.584;2023-02-11T10:02:27;27.10;;;10.18;;
51686;SDS011;37774;52.192;4.584;2023-02-11T10:05:12;28.45;;;9.50;;
51686;SDS011;37774;52.192;4.584;2023-02-11T10:07:50;30.08;;;10.05;;
51686;SDS011;37774;52.192;4.584;2023-02-11T10:10:39;22.55;;;10.20;;
51686;SDS011;37774;52.192;4.584;2023-02-11T10:13:24;23.25;;;9.65;;
51686;SDS011;37774;52.192;4.584;2023-02-11T10:19:00;33.88;;;9.98;;
51686;SDS011;37774;52.192;4.584;2023-02-11T10:22:05;23.88;;;8.38;;
51686;SDS011;37774;52.192;4.584;2023-02-11T10:24:38;28.88;;;10.55;;
51686;SDS011;37774;52.192;4.584;2023-02-11T10:27:12;24.02;;;9.10;;
51686;SDS011;37774;52.192;4.584;2023-02-11T10:29:47;28.33;;;8.73;;
51686;SDS011;37774;52.192;4.584;2023-02-11T10:32:22;23.45;;;9.13;;
51686;SDS011;37774;52.192;4.584;2023-02-11T10:35:00;26.30;;;8.32;;
51686;SDS011;37774;52.192;4.584;2023-02-11T10:37:29;27.48;;;8.73;;
51686;SDS011;37774;52.192;4.584;2023-02-11T10:39:58;23.77;;;8.35;;
51686;SDS011;37774;52.192;4.584;2023-02-11T10:42:27;16.55;;;7.55;;
51686;SDS011;37774;52.192;4.584;2023-02-11T10:44:58;18.40;;;8.27;;
51686;SDS011;37774;52.192;4.584;2023-02-11T10:47:29;24.27;;;7.63;;
51686;SDS011;37774;52.192;4.584;2023-02-11T10:50:03;23.00;;;8.38;;
51686;SDS011;37774;52.192;4.584;2023-02-11T10:52:45;23.67;;;8.15;;
51686;SDS011;37774;52.192;4.584;2023-02-11T10:55:14;23.83;;;8.85;;
51686;SDS011;37774;52.192;4.584;2023-02-11T10:57:49;20.80;;;8.45;;
51686;SDS011;37774;52.192;4.584;2023-02-11T11:00:25;17.55;;;7.63;;
51686;SDS011;37774;52.192;4.584;2023-02-11T11:02:58;18.45;;;7.35;;
51686;SDS011;37774;52.192;4.584;2023-02-11T11:05:31;20.58;;;7.03;;
51686;SDS011;37774;52.192;4.584;2023-02-11T11:07:59;17.20;;;7.70;;
51686;SDS011;37774;52.192;4.584;2023-02-11T11:10:36;14.90;;;7.45;;
51686;SDS011;37774;52.192;4.584;2023-02-11T11:13:27;13.73;;;6.38;;
51686;SDS011;37774;52.192;4.584;2023-02-11T11:16:07;23.63;;;8.07;;
51686;SDS011;37774;52.192;4.584;2023-02-11T11:18:42;19.42;;;7.57;;
51686;SDS011;37774;52.192;4.584;2023-02-11T11:21:11;15.35;;;7.05;;
51686;SDS011;37774;52.192;4.584;2023-02-11T11:23:45;12.77;;;7.07;;
51686;SDS011;37774;52.192;4.584;2023-02-11T11:26:14;17.15;;;6.97;;
51686;SDS011;37774;52.192;4.584;2023-02-11T11:28:49;20.50;;;7.80;;
51686;SDS011;37774;52.192;4.584;2023-02-11T11:31:21;17.10;;;7.65;;
51686;SDS011;37774;52.192;4.584;2023-02-11T11:33:50;16.50;;;7.35;;
51686;SDS011;37774;52.192;4.584;2023-02-11T11:36:21;19.27;;;7.40;;
51686;SDS011;37774;52.192;4.584;2023-02-11T11:38:51;13.93;;;7.43;;
51686;SDS011;37774;52.192;4.584;2023-02-11T11:41:24;16.52;;;7.35;;
51686;SDS011;37774;52.192;4.584;2023-02-11T11:43:52;23.15;;;8.05;;
51686;SDS011;37774;52.192;4.584;2023-02-11T11:46:27;21.92;;;7.80;;
51686;SDS011;37774;52.192;4.584;2023-02-11T11:49:01;13.43;;;6.97;;
51686;SDS011;37774;52.192;4.584;2023-02-11T11:51:35;15.50;;;7.05;;
51686;SDS011;37774;52.192;4.584;2023-02-11T11:54:05;19.48;;;8.43;;
51686;SDS011;37774;52.192;4.584;2023-02-11T11:56:37;21.00;;;6.55;;
51686;SDS011;37774;52.192;4.584;2023-02-11T11:59:18;23.45;;;7.93;;
51686;SDS011;37774;52.192;4.584;2023-02-11T12:01:51;16.17;;;7.60;;
51686;SDS011;37774;52.192;4.584;2023-02-11T12:04:42;14.27;;;6.00;;
51686;SDS011;37774;52.192;4.584;2023-02-11T12:07:25;20.20;;;6.88;;
51686;SDS011;37774;52.192;4.584;2023-02-11T12:13:01;17.08;;;6.80;;
51686;SDS011;37774;52.192;4.584;2023-02-11T12:15:37;20.38;;;5.93;;
51686;SDS011;37774;52.192;4.584;2023-02-11T12:18:29;14.70;;;6.10;;
51686;SDS011;37774;52.192;4.584;2023-02-11T12:21:13;11.57;;;5.72;;
51686;SDS011;37774;52.192;4.584;2023-02-11T12:23:57;14.48;;;5.15;;
51686;SDS011;37774;52.192;4.584;2023-02-11T12:26:45;10.63;;;4.68;;
51686;SDS011;37774;52.192;4.584;2023-02-11T12:29:19;14.90;;;5.32;;
51686;SDS011;37774;52.192;4.584;2023-02-11T12:32:09;18.67;;;6.00;;
51686;SDS011;37774;52.192;4.584;2023-02-11T12:34:55;15.05;;;5.60;;
51686;SDS011;37774;52.192;4.584;2023-02-11T12:40:13;14.45;;;5.38;;
51686;SDS011;37774;52.192;4.584;2023-02-11T12:42:51;15.75;;;5.85;;
51686;SDS011;37774;52.192;4.584;2023-02-11T12:48:37;11.02;;;5.75;;
51686;SDS011;37774;52.192;4.584;2023-02-11T12:51:28;10.73;;;6.20;;
51686;SDS011;37774;52.192;4.584;2023-02-11T12:54:09;12.35;;;5.07;;
51686;SDS011;37774;52.192;4.584;2023-02-11T12:56:44;16.13;;;5.18;;
51686;SDS011;37774;52.192;4.584;2023-02-11T12:59:16;17.52;;;5.32;;
51686;SDS011;37774;52.192;4.584;2023-02-11T13:01:54;19.23;;;5.68;;
51686;SDS011;37774;52.192;4.584;2023-02-11T13:04:24;11.88;;;5.50;;
51686;SDS011;37774;52.192;4.584;2023-02-11T13:06:58;12.98;;;5.22;;
51686;SDS011;37774;52.192;4.584;2023-02-11T13:09:31;13.85;;;5.47;;
51686;SDS011;37774;52.192;4.584;2023-02-11T13:12:04;12.43;;;5.38;;
51686;SDS011;37774;52.192;4.584;2023-02-11T13:14:46;15.27;;;6.25;;
51686;SDS011;37774;52.192;4.584;2023-02-11T13:17:18;13.77;;;5.38;;
51686;SDS011;37774;52.192;4.584;2023-02-11T13:19:52;10.70;;;4.82;;
51686;SDS011;37774;52.192;4.584;2023-02-11T13:22:27;15.45;;;4.35;;
51686;SDS011;37774;52.192;4.584;2023-02-11T13:25:01;15.88;;;5.13;;
51686;SDS011;37774;52.192;4.584;2023-02-11T13:27:35;8.02;;;4.25;;
51686;SDS011;37774;52.192;4.584;2023-02-11T13:30:19;20.23;;;5.30;;
51686;SDS011;37774;52.192;4.584;2023-02-11T13:33:01;11.55;;;4.55;;
51686;SDS011;37774;52.192;4.584;2023-02-11T13:35:42;11.05;;;4.57;;
51686;SDS011;37774;52.192;4.584;2023-02-11T13:38:18;7.75;;;4.20;;
51686;SDS011;37774;52.192;4.584;2023-02-11T13:40:57;16.45;;;5.68;;
51686;SDS011;37774;52.192;4.584;2023-02-11T13:43:27;12.95;;;4.45;;
51686;SDS011;37774;52.192;4.584;2023-02-11T13:45:56;10.88;;;4.72;;
51686;SDS011;37774;52.192;4.584;2023-02-11T13:48:25;10.98;;;5.40;;
51686;SDS011;37774;52.192;4.584;2023-02-11T13:50:55;15.23;;;5.15;;
51686;SDS011;37774;52.192;4.584;2023-02-11T13:53:25;11.80;;;5.28;;
51686;SDS011;37774;52.192;4.584;2023-02-11T13:55:53;17.88;;;5.40;;
51686;SDS011;37774;52.192;4.584;2023-02-11T13:58:33;13.40;;;4.90;;
51686;SDS011;37774;52.192;4.584;2023-02-11T14:01:04;10.98;;;4.60;;
51686;SDS011;37774;52.192;4.584;2023-02-11T14:03:32;7.25;;;4.35;;
51686;SDS011;37774;52.192;4.584;2023-02-11T14:06:20;15.57;;;5.47;;
51686;SDS011;37774;52.192;4.584;2023-02-11T14:12:19;13.50;;;4.53;;
51686;SDS011;37774;52.192;4.584;2023-02-11T14:14:59;15.48;;;4.85;;
51686;SDS011;37774;52.192;4.584;2023-02-11T14:17:28;8.15;;;4.25;;
51686;SDS011;37774;52.192;4.584;2023-02-11T14:20:00;11.80;;;4.47;;
51686;SDS011;37774;52.192;4.584;2023-02-11T14:22:29;11.20;;;5.05;;
51686;SDS011;37774;52.192;4.584;2023-02-11T14:25:14;17.85;;;5.93;;
51686;SDS011;37774;52.192;4.584;2023-02-11T14:27:47;11.57;;;4.38;;
51686;SDS011;37774;52.192;4.584;2023-02-11T14:30:23;11.77;;;4.75;;
51686;SDS011;37774;52.192;4.584;2023-02-11T14:32:59;10.35;;;5.88;;
51686;SDS011;37774;52.192;4.584;2023-02-11T14:35:38;14.40;;;4.72;;
51686;SDS011;37774;52.192;4.584;2023-02-11T14:38:16;16.55;;;5.00;;
51686;SDS011;37774;52.192;4.584;2023-02-11T14:40:49;9.60;;;4.78;;
51686;SDS011;37774;52.192;4.584;2023-02-11T14:43:24;8.85;;;4.45;;
51686;SDS011;37774;52.192;4.584;2023-02-11T14:45:55;18.40;;;5.00;;
51686;SDS011;37774;52.192;4.584;2023-02-11T14:48:26;11.10;;;4.43;;
51686;SDS011;37774;52.192;4.584;2023-02-11T14:50:58;12.70;;;4.43;;
51686;SDS011;37774;52.192;4.584;2023-02-11T14:53:27;8.52;;;4.55;;
51686;SDS011;37774;52.192;4.584;2023-02-11T14:55:57;10.43;;;4.70;;
51686;SDS011;37774;52.192;4.584;2023-02-11T14:58:26;17.50;;;5.38;;
51686;SDS011;37774;52.192;4.584;2023-02-11T15:00:55;16.75;;;5.00;;
51686;SDS011;37774;52.192;4.584;2023-02-11T15:03:24;15.73;;;4.90;;
51686;SDS011;37774;52.192;4.584;2023-02-11T15:05:53;9.13;;;4.20;;
51686;SDS011;37774;52.192;4.584;2023-02-11T15:08:21;8.35;;;3.88;;
51686;SDS011;37774;52.192;4.584;2023-02-11T15:10:48;9.60;;;4.05;;
51686;SDS011;37774;52.192;4.584;2023-02-11T15:13:16;10.05;;;4.10;;
51686;SDS011;37774;52.192;4.584;2023-02-11T15:15:47;10.00;;;4.40;;